Time;durP1;ratioP1;P1;durP2;ratioP2;P2;SDS_P1;SDS_P2;PMS_P1;PMS_P2;Temp;Humidity;BMP_temperature;BMP_pressure;BME280_temperature;BME280_humidity;BME280_pressure;Samples;Min_cycle;Max_cycle;Signal;HPM_P1;HPM_P2
2022/06/12 00:00:23;;;;;;;0.00;0.00;;;20.20;84.80;;;;;;4927334;29;20035;-73
2022/06/12 00:02:49;;;;;;;0.00;0.00;;;20.20;86.00;;;;;;4946474;29;20024;-78
2022/06/12 00:05:17;;;;;;;0.00;0.00;;;20.10;87.80;;;;;;4947757;29;20059;-75
2022/06/12 00:07:43;;;;;;;0.00;0.00;;;20.10;87.70;;;;;;4941976;29;20086;-80
2022/06/12 00:10:12;;;;;;;0.00;0.00;;;20.10;87.30;;;;;;4937716;29;20055;-80
2022/06/12 00:12:41;;;;;;;0.00;0.00;;;20.10;88.30;;;;;;4950253;29;20291;-73
2022/06/12 00:15:08;;;;;;;0.00;0.00;;;20.00;87.20;;;;;;4943625;29;20043;-73
2022/06/12 00:17:33;;;;;;;0.00;0.00;;;20.00;87.80;;;;;;4946308;29;20028;-73
2022/06/12 00:19:59;;;;;;;0.00;0.00;;;20.00;88.50;;;;;;4932007;29;20030;-79
2022/06/12 00:22:25;;;;;;;0.00;0.00;;;20.00;89.50;;;;;;4944381;29;20028;-73
2022/06/12 00:24:51;;;;;;;0.00;0.00;;;20.00;88.70;;;;;;4948422;29;20050;-76
2022/06/12 00:27:17;;;;;;;0.00;0.00;;;19.90;88.70;;;;;;4931861;29;20042;-72
2022/06/12 00:29:44;;;;;;;0.00;0.00;;;19.90;86.20;;;;;;4949184;29;20062;-77
2022/06/12 00:32:16;;;;;;;0.00;0.00;;;19.90;88.70;;;;;;4929019;29;20037;-79
2022/06/12 00:34:49;;;;;;;0.00;0.00;;;19.90;88.90;;;;;;4933487;29;20033;-80
2022/06/12 00:37:18;;;;;;;0.00;0.00;;;19.80;89.30;;;;;;4928955;29;20180;-73
2022/06/12 00:39:46;;;;;;;0.00;0.00;;;19.80;89.10;;;;;;4943954;28;20030;-78
2022/06/12 00:42:35;;;;;;;0.00;0.00;;;19.80;88.20;;;;;;4944799;29;20035;-75
2022/06/12 00:45:21;;;;;;;0.00;0.00;;;19.80;88.10;;;;;;4920583;29;20323;-80
2022/06/12 00:47:47;;;;;;;0.00;0.00;;;19.80;89.10;;;;;;4947921;29;20107;-78
2022/06/12 00:50:13;;;;;;;0.00;0.00;;;19.70;88.10;;;;;;4926015;29;20027;-73
2022/06/12 00:52:46;;;;;;;0.00;0.00;;;19.70;87.00;;;;;;4946843;29;20030;-79
2022/06/12 00:55:25;;;;;;;0.00;0.00;;;19.70;87.90;;;;;;4930743;29;20019;-76
2022/06/12 00:58:02;;;;;;;0.00;0.00;;;19.70;87.40;;;;;;4938973;29;20027;-72
2022/06/12 01:00:29;;;;;;;0.00;0.00;;;19.70;89.60;;;;;;4927831;29;20083;-72
2022/06/12 01:02:56;;;;;;;0.00;0.00;;;19.60;89.00;;;;;;4947796;29;20023;-72
2022/06/12 01:08:09;;;;;;;0.00;0.00;;;19.60;87.40;;;;;;4946872;29;20070;-77
2022/06/12 01:10:38;;;;;;;0.00;0.00;;;19.60;89.90;;;;;;4947408;29;20318;-72
2022/06/12 01:13:14;;;;;;;0.00;0.00;;;19.60;89.10;;;;;;4946942;28;20524;-73
2022/06/12 01:15:44;;;;;;;0.00;0.00;;;19.50;88.70;;;;;;4946361;29;20271;-79
2022/06/12 01:18:13;;;;;;;0.00;0.00;;;19.50;89.50;;;;;;4931666;28;20019;-80
2022/06/12 01:20:53;;;;;;;0.00;0.00;;;19.50;89.30;;;;;;4938145;29;20039;-72
2022/06/12 01:24:04;;;;;;;0.00;0.00;;;19.40;87.60;;;;;;4939966;28;20203;-76
2022/06/12 01:26:44;;;;;;;0.00;0.00;;;19.40;86.50;;;;;;4938797;28;20211;-80
2022/06/12 01:29:54;;;;;;;0.00;0.00;;;19.40;87.20;;;;;;4942313;28;20027;-73
2022/06/12 01:32:55;;;;;;;0.00;0.00;;;19.40;90.20;;;;;;4925905;28;20344;-78
2022/06/12 01:35:35;;;;;;;0.00;0.00;;;19.40;88.60;;;;;;4949278;28;20322;-73
2022/06/12 01:38:04;;;;;;;0.00;0.00;;;19.40;87.80;;;;;;4935808;29;20102;-79
2022/06/12 01:41:01;;;;;;;0.00;0.00;;;19.30;89.00;;;;;;4945632;28;20039;-80
2022/06/12 01:43:45;;;;;;;0.00;0.00;;;19.40;89.80;;;;;;4926379;29;20076;-73
2022/06/12 01:46:23;;;;;;;0.00;0.00;;;19.40;91.10;;;;;;4950574;28;20039;-76
2022/06/12 01:49:05;;;;;;;0.00;0.00;;;19.30;90.70;;;;;;4943165;28;20362;-78
2022/06/12 01:51:54;;;;;;;0.00;0.00;;;19.20;90.20;;;;;;4926009;29;20035;-74
2022/06/12 01:54:42;;;;;;;0.00;0.00;;;19.30;90.70;;;;;;4935386;29;20130;-80
2022/06/12 01:57:16;;;;;;;0.00;0.00;;;19.20;90.20;;;;;;4942541;28;20024;-79
2022/06/12 02:00:08;;;;;;;0.00;0.00;;;19.10;90.10;;;;;;4944787;28;20023;-73
2022/06/12 02:02:37;;;;;;;0.00;0.00;;;19.20;90.70;;;;;;4934498;28;20054;-72
2022/06/12 02:05:11;;;;;;;0.00;0.00;;;19.20;89.10;;;;;;4935606;29;20366;-72
2022/06/12 02:08:13;;;;;;;0.00;0.00;;;19.20;89.50;;;;;;4947053;28;20334;-72
2022/06/12 02:10:50;;;;;;;0.00;0.00;;;19.20;90.10;;;;;;4942927;28;20026;-72
2022/06/12 02:13:24;;;;;;;0.00;0.00;;;19.20;90.10;;;;;;4943938;29;20369;-72
2022/06/12 02:16:14;;;;;;;0.00;0.00;;;19.20;90.40;;;;;;4946277;29;20023;-78
2022/06/12 02:18:50;;;;;;;0.00;0.00;;;19.10;91.50;;;;;;4943933;29;20137;-78
2022/06/12 02:21:41;;;;;;;0.00;0.00;;;19.10;90.50;;;;;;4943712;29;20031;-74
2022/06/12 02:24:21;;;;;;;0.00;0.00;;;19.10;90.90;;;;;;4947513;29;20036;-73
2022/06/12 02:27:00;;;;;;;0.00;0.00;;;19.00;90.00;;;;;;4943284;29;20310;-76
2022/06/12 02:29:46;;;;;;;0.00;0.00;;;19.00;90.80;;;;;;4942099;29;20310;-72
2022/06/12 02:32:47;;;;;;;0.00;0.00;;;19.00;90.60;;;;;;4927242;29;20187;-73
2022/06/12 02:35:44;;;;;;;0.00;0.00;;;19.00;90.70;;;;;;4933100;28;20055;-74
2022/06/12 02:38:18;;;;;;;0.00;0.00;;;19.10;91.60;;;;;;4936658;29;20332;-80
2022/06/12 02:40:51;;;;;;;0.00;0.00;;;19.00;91.70;;;;;;4929447;29;20330;-77
2022/06/12 02:43:23;;;;;;;0.00;0.00;;;18.80;91.40;;;;;;4948055;29;20021;-74
2022/06/12 02:45:58;;;;;;;0.00;0.00;;;19.00;91.50;;;;;;4947033;29;20114;-73
2022/06/12 02:48:25;;;;;;;0.00;0.00;;;18.90;91.80;;;;;;4943926;28;20030;-76
2022/06/12 02:50:56;;;;;;;0.00;0.00;;;18.90;91.70;;;;;;4948683;28;20039;-76
2022/06/12 02:53:37;;;;;;;0.00;0.00;;;18.90;91.90;;;;;;4947127;28;20015;-72
2022/06/12 02:56:17;;;;;;;0.00;0.00;;;18.80;91.70;;;;;;4943466;28;20024;-73
2022/06/12 02:58:51;;;;;;;0.00;0.00;;;18.90;91.50;;;;;;4943524;29;20022;-78
2022/06/12 03:01:22;;;;;;;0.00;0.00;;;18.80;91.60;;;;;;4929746;29;20146;-74
2022/06/12 03:03:54;;;;;;;0.00;0.00;;;18.80;91.70;;;;;;4933621;29;20070;-76
2022/06/12 03:06:26;;;;;;;0.00;0.00;;;18.80;92.80;;;;;;4951187;28;20110;-77
2022/06/12 03:08:52;;;;;;;0.00;0.00;;;18.80;93.20;;;;;;4948521;28;20057;-78
2022/06/12 03:11:23;;;;;;;0.00;0.00;;;18.80;91.80;;;;;;4948307;28;20031;-72
2022/06/12 03:13:51;;;;;;;0.00;0.00;;;18.80;92.20;;;;;;4938666;29;20045;-80
2022/06/12 03:16:27;;;;;;;0.00;0.00;;;18.80;92.20;;;;;;4950624;28;20027;-72
2022/06/12 03:18:59;;;;;;;0.00;0.00;;;18.80;93.70;;;;;;4950033;28;20023;-73
2022/06/12 03:21:46;;;;;;;0.00;0.00;;;18.80;93.20;;;;;;4948067;28;20050;-78
2022/06/12 03:24:39;;;;;;;0.00;0.00;;;18.80;92.80;;;;;;4947821;29;20693;-72
2022/06/12 03:27:24;;;;;;;0.00;0.00;;;18.80;93.20;;;;;;4946185;28;20581;-73
2022/06/12 03:29:55;;;;;;;0.00;0.00;;;18.80;92.90;;;;;;4938466;29;20020;-79
2022/06/12 03:32:48;;;;;;;0.00;0.00;;;18.80;93.20;;;;;;4929892;29;20195;-73
2022/06/12 03:35:28;;;;;;;0.00;0.00;;;18.80;92.70;;;;;;4934256;28;20045;-75
2022/06/12 03:38:07;;;;;;;0.00;0.00;;;18.80;92.90;;;;;;4951153;28;20023;-73
2022/06/12 03:40:39;;;;;;;0.00;0.00;;;18.80;92.80;;;;;;4946651;28;20041;-73
2022/06/12 03:43:10;;;;;;;0.00;0.00;;;18.80;93.70;;;;;;4947741;28;20163;-74
2022/06/12 03:45:47;;;;;;;0.00;0.00;;;18.80;93.70;;;;;;4952866;28;20137;-73
2022/06/12 03:48:40;;;;;;;0.00;0.00;;;18.80;93.70;;;;;;4948215;28;20043;-73
2022/06/12 03:51:33;;;;;;;0.00;0.00;;;18.80;93.70;;;;;;4952502;28;20039;-73
2022/06/12 03:54:23;;;;;;;0.00;0.00;;;18.80;94.20;;;;;;4949603;28;20199;-72
2022/06/12 03:59:50;;;;;;;0.00;0.00;;;18.80;94.30;;;;;;4948134;28;20210;-80
2022/06/12 04:02:19;;;;;;;0.00;0.00;;;18.70;94.10;;;;;;4948725;28;20036;-73
2022/06/12 04:04:48;;;;;;;0.00;0.00;;;18.80;94.30;;;;;;4948537;28;20064;-73
2022/06/12 04:07:17;;;;;;;0.00;0.00;;;18.80;94.70;;;;;;4927398;29;20302;-73
2022/06/12 04:09:46;;;;;;;0.00;0.00;;;18.80;95.20;;;;;;4930991;28;20027;-73
2022/06/12 04:12:28;;;;;;;0.00;0.00;;;18.80;95.40;;;;;;4930873;29;20054;-72
2022/06/12 04:15:14;;;;;;;0.00;0.00;;;18.80;95.50;;;;;;4931908;28;20186;-79
2022/06/12 04:17:40;;;;;;;0.00;0.00;;;18.80;95.70;;;;;;4946202;28;20572;-80
2022/06/12 04:20:12;;;;;;;0.00;0.00;;;18.80;95.90;;;;;;4946675;28;20318;-78
2022/06/12 04:23:11;;;;;;;0.00;0.00;;;18.80;96.00;;;;;;4947651;29;20325;-74
2022/06/12 04:26:03;;;;;;;0.00;0.00;;;18.80;96.20;;;;;;4951565;29;20019;-72
2022/06/12 04:28:31;;;;;;;0.00;0.00;;;18.80;96.50;;;;;;4925907;28;20140;-80
2022/06/12 04:30:59;;;;;;;0.00;0.00;;;18.80;96.70;;;;;;4947215;28;20042;-79
2022/06/12 04:33:48;;;;;;;0.00;0.00;;;18.80;96.90;;;;;;4949492;28;20027;-75
2022/06/12 04:36:13;;;;;;;0.00;0.00;;;18.80;96.90;;;;;;4943389;29;20043;-73
2022/06/12 04:38:40;;;;;;;0.00;0.00;;;18.80;97.00;;;;;;4937521;29;20027;-80
2022/06/12 04:41:06;;;;;;;0.00;0.00;;;18.80;96.90;;;;;;4946977;29;20048;-73
2022/06/12 04:43:32;;;;;;;0.00;0.00;;;18.80;97.30;;;;;;4945735;29;20043;-72
2022/06/12 04:45:58;;;;;;;0.00;0.00;;;18.80;97.70;;;;;;4949542;29;20163;-76
2022/06/12 04:48:36;;;;;;;0.00;0.00;;;18.80;97.80;;;;;;4944768;29;20051;-77
2022/06/12 04:51:04;;;;;;;0.00;0.00;;;18.80;97.80;;;;;;4930949;29;20030;-73
2022/06/12 04:53:30;;;;;;;0.00;0.00;;;18.90;98.10;;;;;;4945575;29;20031;-80
2022/06/12 04:55:56;;;;;;;0.00;0.00;;;18.90;98.20;;;;;;4928078;29;20019;-73
2022/06/12 04:58:22;;;;;;;0.00;0.00;;;18.90;98.40;;;;;;4943200;29;20030;-73
2022/06/12 05:00:48;;;;;;;0.00;0.00;;;18.90;98.50;;;;;;4952346;29;20031;-73
2022/06/12 05:03:13;;;;;;;0.00;0.00;;;18.90;98.60;;;;;;4948130;29;20023;-76
2022/06/12 05:05:41;;;;;;;0.00;0.00;;;19.00;98.70;;;;;;4931951;29;20079;-80
2022/06/12 05:08:06;;;;;;;0.00;0.00;;;19.00;98.90;;;;;;4930834;29;20469;-72
2022/06/12 05:10:32;;;;;;;0.00;0.00;;;19.10;99.10;;;;;;4938241;29;20023;-73
2022/06/12 05:12:57;;;;;;;0.00;0.00;;;19.10;99.20;;;;;;4948597;29;20038;-73
2022/06/12 05:15:23;;;;;;;0.00;0.00;;;19.10;99.10;;;;;;4930682;29;20020;-74
2022/06/12 05:17:49;;;;;;;0.00;0.00;;;19.20;99.20;;;;;;4947103;29;20138;-80
2022/06/12 05:20:29;;;;;;;0.00;0.00;;;19.20;99.00;;;;;;4937560;28;20300;-73
2022/06/12 05:22:55;;;;;;;0.00;0.00;;;19.30;98.60;;;;;;4938450;29;20281;-73
2022/06/12 05:25:23;;;;;;;0.00;0.00;;;19.30;98.40;;;;;;4931483;29;20033;-73
2022/06/12 05:27:50;;;;;;;0.00;0.00;;;19.40;98.00;;;;;;4929984;29;20054;-80
2022/06/12 05:30:20;;;;;;;0.00;0.00;;;19.40;97.40;;;;;;4948993;29;20069;-73
2022/06/12 05:32:48;;;;;;;0.00;0.00;;;19.50;97.20;;;;;;4946902;29;20080;-73
2022/06/12 05:35:15;;;;;;;0.00;0.00;;;19.50;97.00;;;;;;4929859;29;20032;-73
2022/06/12 05:37:41;;;;;;;0.00;0.00;;;19.60;97.10;;;;;;4928681;29;20207;-73
2022/06/12 05:40:11;;;;;;;0.00;0.00;;;19.70;97.10;;;;;;4949740;29;20022;-73
2022/06/12 05:42:38;;;;;;;0.00;0.00;;;19.70;97.10;;;;;;4943958;29;20031;-73
2022/06/12 05:45:10;;;;;;;0.00;0.00;;;19.80;97.60;;;;;;4949164;29;20315;-73
2022/06/12 05:47:43;;;;;;;0.00;0.00;;;19.80;97.00;;;;;;4948711;29;20098;-73
2022/06/12 05:50:09;;;;;;;0.00;0.00;;;19.90;97.10;;;;;;4944715;29;20329;-72
2022/06/12 05:52:34;;;;;;;0.00;0.00;;;20.00;96.90;;;;;;4939372;29;20781;-73
2022/06/12 05:55:00;;;;;;;0.00;0.00;;;20.00;96.50;;;;;;4945369;29;20024;-81
2022/06/12 05:57:26;;;;;;;0.00;0.00;;;20.10;96.10;;;;;;4947854;29;20039;-73
2022/06/12 05:59:51;;;;;;;0.00;0.00;;;20.20;96.40;;;;;;4945655;29;20051;-80
2022/06/12 06:02:17;;;;;;;0.00;0.00;;;20.20;95.70;;;;;;4937230;29;20118;-72
2022/06/12 06:04:43;;;;;;;0.00;0.00;;;20.30;95.50;;;;;;4936187;29;20057;-72
2022/06/12 06:07:09;;;;;;;0.00;0.00;;;20.40;94.80;;;;;;4922553;29;20036;-71
2022/06/12 06:09:35;;;;;;;0.00;0.00;;;20.70;96.40;;;;;;4946148;29;20023;-72
2022/06/12 06:12:00;;;;;;;0.00;0.00;;;20.90;96.50;;;;;;4950757;29;20035;-75
2022/06/12 06:14:26;;;;;;;0.00;0.00;;;21.30;95.60;;;;;;4929703;29;20825;-73
2022/06/12 06:16:51;;;;;;;0.00;0.00;;;21.80;94.10;;;;;;4943743;29;20203;-79
2022/06/12 06:19:17;;;;;;;0.00;0.00;;;22.50;94.80;;;;;;4926347;29;20107;-72
2022/06/12 06:21:43;;;;;;;0.00;0.00;;;23.20;95.10;;;;;;4945191;29;20110;-76
2022/06/12 06:24:10;;;;;;;0.00;0.00;;;23.90;93.60;;;;;;4946553;29;20352;-74
2022/06/12 06:26:35;;;;;;;0.00;0.00;;;24.50;93.90;;;;;;4925215;29;20032;-73
2022/06/12 06:29:02;;;;;;;0.00;0.00;;;25.00;92.60;;;;;;4946532;29;20020;-76
2022/06/12 06:31:28;;;;;;;0.00;0.00;;;25.60;91.10;;;;;;4945739;28;20038;-73
2022/06/12 06:33:54;;;;;;;0.00;0.00;;;26.00;90.80;;;;;;4936564;29;20031;-80
2022/06/12 06:36:20;;;;;;;0.00;0.00;;;26.50;90.50;;;;;;4948186;29;20050;-81
2022/06/12 06:38:49;;;;;;;0.00;0.00;;;26.90;89.90;;;;;;4950203;29;20035;-73
2022/06/12 06:41:14;;;;;;;0.00;0.00;;;27.20;88.40;;;;;;4946756;29;20053;-73
2022/06/12 06:46:25;;;;;;;0.00;0.00;;;27.80;86.60;;;;;;4947429;29;20075;-73
2022/06/12 06:48:51;;;;;;;0.00;0.00;;;28.10;85.30;;;;;;4940214;29;20048;-73
2022/06/12 06:51:17;;;;;;;0.00;0.00;;;28.40;80.90;;;;;;4945931;29;20032;-80
2022/06/12 06:53:43;;;;;;;0.00;0.00;;;28.60;81.80;;;;;;4952552;29;20728;-73
2022/06/12 06:56:08;;;;;;;0.00;0.00;;;28.90;82.00;;;;;;4945528;29;20024;-73
2022/06/12 06:58:35;;;;;;;0.00;0.00;;;29.10;80.50;;;;;;4953411;29;20373;-72
2022/06/12 07:01:02;;;;;;;0.00;0.00;;;29.40;83.70;;;;;;4944726;29;20110;-73
2022/06/12 07:03:28;;;;;;;0.00;0.00;;;29.40;78.60;;;;;;4946248;29;20302;-72
2022/06/12 07:05:55;;;;;;;0.00;0.00;;;29.70;77.20;;;;;;4949245;29;20051;-80
2022/06/12 07:08:27;;;;;;;0.00;0.00;;;29.90;75.90;;;;;;4938422;29;20075;-78
2022/06/12 07:10:55;;;;;;;0.00;0.00;;;30.20;74.70;;;;;;4929946;29;20078;-80
2022/06/12 07:13:21;;;;;;;;;;;30.50;76.60;;;;;;4950062;28;20333;-78
2022/06/12 07:15:47;;;;;;;0.00;0.00;;;30.80;77.80;;;;;;4931332;28;19922;-72
2022/06/12 07:18:14;;;;;;;0.00;0.00;;;30.90;73.80;;;;;;4930299;29;20264;-73
2022/06/12 07:20:45;;;;;;;0.00;0.00;;;31.00;70.70;;;;;;4949323;28;20114;-79
2022/06/12 07:23:12;;;;;;;0.00;0.00;;;30.90;66.60;;;;;;4947177;29;20027;-74
2022/06/12 07:25:43;;;;;;;0.00;0.00;;;30.30;68.00;;;;;;4951807;29;20098;-73
2022/06/12 07:28:09;;;;;;;0.00;0.00;;;29.50;65.60;;;;;;4935203;29;20568;-77
2022/06/12 07:30:35;;;;;;;0.00;0.00;;;28.80;68.00;;;;;;4953164;28;20031;-75
2022/06/12 07:33:01;;;;;;;0.00;0.00;;;28.20;69.40;;;;;;4940260;29;20215;-74
2022/06/12 07:35:26;;;;;;;0.00;0.00;;;27.70;70.20;;;;;;4933376;29;20394;-72
2022/06/12 07:37:52;;;;;;;0.00;0.00;;;27.20;69.40;;;;;;4945561;28;20079;-72
2022/06/12 07:40:27;;;;;;;0.00;0.00;;;26.80;71.30;;;;;;4933306;29;20027;-71
2022/06/12 07:42:53;;;;;;;0.00;0.00;;;26.40;71.40;;;;;;4947824;29;20012;-78
2022/06/12 07:45:19;;;;;;;0.00;0.00;;;26.10;75.60;;;;;;4949951;29;20530;-76
2022/06/12 07:47:45;;;;;;;0.00;0.00;;;25.90;77.20;;;;;;4949142;29;20057;-72
2022/06/12 07:50:11;;;;;;;0.00;0.00;;;25.80;76.40;;;;;;4939924;29;20032;-77
2022/06/12 07:52:39;;;;;;;0.00;0.00;;;25.70;77.10;;;;;;4940730;29;20259;-73
2022/06/12 07:55:07;;;;;;;0.00;0.00;;;25.70;77.00;;;;;;4950270;28;20046;-72
2022/06/12 07:57:33;;;;;;;0.00;0.00;;;25.70;76.70;;;;;;4948317;29;20107;-72
2022/06/12 07:59:59;;;;;;;0.00;0.00;;;25.90;76.00;;;;;;4938313;29;20607;-80
2022/06/12 08:02:24;;;;;;;0.00;0.00;;;26.30;77.20;;;;;;4948487;29;20050;-75
2022/06/12 08:04:50;;;;;;;0.00;0.00;;;27.00;76.80;;;;;;4946619;29;20066;-78
2022/06/12 08:07:16;;;;;;;0.00;0.00;;;27.90;74.80;;;;;;4947961;29;20027;-77
2022/06/12 08:09:42;;;;;;;0.00;0.00;;;28.90;73.20;;;;;;4946452;29;20373;-73
2022/06/12 08:12:09;;;;;;;0.00;0.00;;;29.90;68.30;;;;;;4937976;29;20023;-80
2022/06/12 08:14:34;;;;;;;0.00;0.00;;;30.80;67.60;;;;;;4936401;29;20112;-78
2022/06/12 08:17:00;;;;;;;0.00;0.00;;;31.70;65.30;;;;;;4947501;29;20061;-77
2022/06/12 08:22:16;;;;;;;0.00;0.00;;;33.10;65.10;;;;;;4927866;28;20045;-74
2022/06/12 08:24:42;;;;;;;0.00;0.00;;;33.80;62.10;;;;;;4931206;29;20066;-73
2022/06/12 08:27:08;;;;;;;0.00;0.00;;;34.40;60.80;;;;;;4948024;29;20028;-75
2022/06/12 08:29:34;;;;;;;0.00;0.00;;;34.70;60.00;;;;;;4950906;29;20114;-73
2022/06/12 08:32:07;;;;;;;0.00;0.00;;;35.10;56.00;;;;;;4941430;29;20027;-79
2022/06/12 08:34:59;;;;;;;0.00;0.00;;;35.50;59.10;;;;;;4948149;28;20074;-74
2022/06/12 08:37:30;;;;;;;0.00;0.00;;;35.70;55.80;;;;;;4926625;29;20023;-73
2022/06/12 08:39:57;;;;;;;0.00;0.00;;;36.10;56.60;;;;;;4951233;29;20086;-80
2022/06/12 08:42:44;;;;;;;0.00;0.00;;;36.20;54.70;;;;;;4929017;29;20043;-74
2022/06/12 08:45:17;;;;;;;0.00;0.00;;;36.70;57.20;;;;;;4950849;29;20098;-80
2022/06/12 08:47:50;;;;;;;0.00;0.00;;;37.10;53.10;;;;;;4928698;28;20025;-73
2022/06/12 08:50:28;;;;;;;0.00;0.00;;;37.50;54.80;;;;;;4944260;28;20039;-73
2022/06/12 08:53:14;;;;;;;0.00;0.00;;;37.90;53.40;;;;;;4950402;28;20019;-78
2022/06/12 08:55:59;;;;;;;0.00;0.00;;;38.30;55.00;;;;;;4929343;29;20027;-82
2022/06/12 08:58:34;;;;;;;0.00;0.00;;;38.50;54.60;;;;;;4946248;29;20027;-74
2022/06/12 09:01:01;;;;;;;0.00;0.00;;;38.70;52.70;;;;;;4951188;28;20306;-80
2022/06/12 09:03:31;;;;;;;0.00;0.00;;;38.80;49.50;;;;;;4950735;29;20020;-73
2022/06/12 09:06:08;;;;;;;0.00;0.00;;;39.10;51.90;;;;;;4932164;29;20044;-80
2022/06/12 09:08:52;;;;;;;0.00;0.00;;;39.40;48.40;;;;;;4932502;29;20051;-74
2022/06/12 09:11:24;;;;;;;0.00;0.00;;;39.80;48.80;;;;;;4949229;28;20330;-74
2022/06/12 09:13:59;;;;;;;0.00;0.00;;;40.00;51.20;;;;;;4939733;29;20035;-77
2022/06/12 09:16:46;;;;;;;0.00;0.00;;;40.20;47.30;;;;;;4948236;29;20341;-79
2022/06/12 09:19:33;;;;;;;0.00;0.00;;;40.50;47.30;;;;;;4945270;29;20118;-74
2022/06/12 09:22:09;;;;;;;0.00;0.00;;;40.50;48.20;;;;;;4951016;29;20274;-82
2022/06/12 09:24:57;;;;;;;0.00;0.00;;;40.90;48.00;;;;;;4932000;29;20024;-74
2022/06/12 09:27:52;;;;;;;0.00;0.00;;;41.10;43.70;;;;;;4947147;29;20019;-74
2022/06/12 09:30:24;;;;;;;0.00;0.00;;;41.20;46.40;;;;;;4932217;29;20156;-74
2022/06/12 09:33:20;;;;;;;0.00;0.00;;;41.50;45.50;;;;;;4947982;29;20319;-81
2022/06/12 09:36:08;;;;;;;0.00;0.00;;;41.60;42.40;;;;;;4953438;29;20298;-73
2022/06/12 09:38:56;;;;;;;0.00;0.00;;;42.00;45.20;;;;;;4939278;29;20067;-73
2022/06/12 09:41:43;;;;;;;0.00;0.00;;;42.30;44.80;;;;;;4948888;29;20043;-73
2022/06/12 09:44:09;;;;;;;0.00;0.00;;;42.30;42.90;;;;;;4932739;29;20012;-84
2022/06/12 09:46:37;;;;;;;0.00;0.00;;;42.60;44.20;;;;;;4928034;29;20034;-77
2022/06/12 09:49:06;;;;;;;0.00;0.00;;;43.00;44.80;;;;;;4938714;29;20018;-73
2022/06/12 09:52:06;;;;;;;0.00;0.00;;;42.90;43.00;;;;;;4948129;28;20159;-73
2022/06/12 09:54:50;;;;;;;0.00;0.00;;;43.10;46.30;;;;;;4930135;29;20355;-77
2022/06/12 09:57:38;;;;;;;0.00;0.00;;;43.20;45.40;;;;;;4930823;28;20310;-73
2022/06/12 10:00:17;;;;;;;0.00;0.00;;;43.50;41.80;;;;;;4948070;28;20306;-74
2022/06/12 10:02:47;;;;;;;0.00;0.00;;;43.60;42.10;;;;;;4950969;28;20031;-75
2022/06/12 10:05:17;;;;;;;0.00;0.00;;;43.70;42.70;;;;;;4923944;29;20146;-74
2022/06/12 10:08:16;;;;;;;0.00;0.00;;;44.00;43.20;;;;;;4938645;29;20039;-74
2022/06/12 10:10:57;;;;;;;0.00;0.00;;;44.30;41.90;;;;;;4921025;29;20034;-77
2022/06/12 10:13:39;;;;;;;0.00;0.00;;;44.20;40.40;;;;;;4941370;29;20035;-72
2022/06/12 10:16:11;;;;;;;0.00;0.00;;;43.80;40.80;;;;;;4943333;29;20098;-73
2022/06/12 10:18:52;;;;;;;0.00;0.00;;;44.30;41.70;;;;;;4927075;29;20311;-73
2022/06/12 10:21:22;;;;;;;0.00;0.00;;;44.50;44.10;;;;;;4944012;29;20079;-75
2022/06/12 10:23:49;;;;;;;0.00;0.00;;;44.90;45.20;;;;;;4944022;29;20646;-74
2022/06/12 10:26:22;;;;;;;0.00;0.00;;;45.00;43.80;;;;;;4943220;29;20043;-79
2022/06/12 10:29:12;;;;;;;0.00;0.00;;;45.00;40.30;;;;;;4926076;29;20024;-80
2022/06/12 10:31:55;;;;;;;0.00;0.00;;;44.90;40.40;;;;;;4944385;29;20216;-73
2022/06/12 10:34:24;;;;;;;0.00;0.00;;;44.90;39.20;;;;;;4925945;29;20055;-74
2022/06/12 10:36:50;;;;;;;0.00;0.00;;;44.80;40.60;;;;;;4925890;29;20202;-82
2022/06/12 10:39:21;;;;;;;0.00;0.00;;;45.00;39.50;;;;;;4926311;29;20027;-75
2022/06/12 10:41:56;;;;;;;0.00;0.00;;;45.20;41.70;;;;;;4943148;29;20031;-74
2022/06/12 10:44:36;;;;;;;0.00;0.00;;;45.40;39.20;;;;;;4925634;29;20242;-74
2022/06/12 10:47:16;;;;;;;0.00;0.00;;;45.00;37.50;;;;;;4942466;29;20723;-81
2022/06/12 10:49:42;;;;;;;0.00;0.00;;;45.00;37.80;;;;;;4925321;29;20087;-73
2022/06/12 10:52:21;;;;;;;0.00;0.00;;;45.40;39.50;;;;;;4942474;29;20031;-74
2022/06/12 10:54:50;;;;;;;0.00;0.00;;;46.00;38.30;;;;;;4943799;29;20023;-75
2022/06/12 10:58:02;;;;;;;0.00;0.00;;;45.80;38.40;;;;;;4925630;29;20027;-73
2022/06/12 11:00:34;;;;;;;0.00;0.00;;;46.50;37.90;;;;;;4940730;29;20050;-74
2022/06/12 11:03:22;;;;;;;0.00;0.00;;;46.50;38.10;;;;;;4942640;29;20031;-79
2022/06/12 11:05:50;;;;;;;0.00;0.00;;;46.90;36.50;;;;;;4951340;28;20063;-71
2022/06/12 11:08:20;;;;;;;0.00;0.00;;;47.10;37.30;;;;;;4955282;28;20033;-78
2022/06/12 11:10:59;;;;;;;0.00;0.00;;;47.00;37.60;;;;;;4955180;29;20023;-79
2022/06/12 11:13:43;;;;;;;0.00;0.00;;;47.00;36.00;;;;;;4952459;28;20351;-73
2022/06/12 11:16:17;;;;;;;0.00;0.00;;;46.20;36.40;;;;;;4934902;29;20126;-77
2022/06/12 11:18:52;;;;;;;0.00;0.00;;;45.80;38.10;;;;;;4952964;28;20046;-73
2022/06/12 11:21:23;;;;;;;0.00;0.00;;;45.20;38.10;;;;;;4954627;28;20051;-74
2022/06/12 11:23:49;;;;;;;0.00;0.00;;;44.60;37.20;;;;;;4950626;28;20031;-79
2022/06/12 11:26:23;;;;;;;0.00;0.00;;;44.10;37.90;;;;;;4951229;29;20026;-74
2022/06/12 11:29:18;;;;;;;0.00;0.00;;;43.50;38.30;;;;;;4949345;28;20106;-76
2022/06/12 11:31:55;;;;;;;;;;;42.80;37.50;;;;;;4952117;28;20022;-77
2022/06/12 11:35:14;;;;;;;0.00;0.00;;;41.90;38.70;;;;;;4937988;29;19958;-73
2022/06/12 11:38:11;;;;;;;0.00;0.00;;;40.30;38.80;;;;;;4918448;29;20102;-74
2022/06/12 11:40:55;;;;;;;0.00;0.00;;;39.00;42.30;;;;;;4949824;28;20047;-73
2022/06/12 11:43:32;;;;;;;0.00;0.00;;;37.80;47.00;;;;;;4945742;28;20109;-74
2022/06/12 11:46:20;;;;;;;0.00;0.00;;;36.80;45.30;;;;;;4947686;28;20039;-72
2022/06/12 11:49:01;;;;;;;0.00;0.00;;;35.70;46.00;;;;;;4941343;29;20035;-72
2022/06/12 11:51:46;;;;;;;0.00;0.00;;;34.70;47.80;;;;;;4932463;29;20098;-75
2022/06/12 11:54:36;;;;;;;0.00;0.00;;;33.80;47.00;;;;;;4948922;28;20027;-74
2022/06/12 11:57:20;;;;;;;0.00;0.00;;;33.20;49.70;;;;;;4945238;29;20258;-80
2022/06/12 11:59:52;;;;;;;0.00;0.00;;;32.70;49.70;;;;;;4946686;28;20019;-73
2022/06/12 12:02:45;;;;;;;0.00;0.00;;;32.20;51.00;;;;;;4951243;28;20031;-73
2022/06/12 12:05:54;;;;;;;0.00;0.00;;;31.70;53.70;;;;;;4932118;29;20066;-73
2022/06/12 12:08:35;;;;;;;0.00;0.00;;;31.40;55.50;;;;;;4908292;28;20054;-77
2022/06/12 12:11:08;;;;;;;0.00;0.00;;;31.10;53.10;;;;;;4948287;29;20087;-80
2022/06/12 12:13:42;;;;;;;0.00;0.00;;;30.80;53.30;;;;;;4925339;29;20346;-72
2022/06/12 12:16:30;;;;;;;0.00;0.00;;;30.50;51.40;;;;;;4929664;29;20023;-73
2022/06/12 12:19:14;;;;;;;0.00;0.00;;;30.30;51.50;;;;;;4947106;29;20051;-72
2022/06/12 12:21:50;;;;;;;0.00;0.00;;;30.10;51.50;;;;;;4932328;28;20031;-77
2022/06/12 12:24:35;;;;;;;0.00;0.00;;;29.90;54.00;;;;;;4944915;28;20020;-73
2022/06/12 12:27:05;;;;;;;0.00;0.00;;;29.80;52.50;;;;;;4942258;28;20031;-79
2022/06/12 12:29:34;;;;;;;0.00;0.00;;;29.70;52.20;;;;;;4947845;28;20046;-76
2022/06/12 12:32:04;;;;;;;0.00;0.00;;;29.60;53.70;;;;;;4947097;28;20319;-77
2022/06/12 12:34:31;;;;;;;0.00;0.00;;;29.40;53.50;;;;;;4936196;29;20099;-79
2022/06/12 12:42:31;;;;;;;0.00;0.00;;;29.30;51.10;;;;;;4945745;28;20061;-73
2022/06/12 12:45:27;;;;;;;0.00;0.00;;;29.10;51.20;;;;;;4951195;29;20311;-72
2022/06/12 12:48:09;;;;;;;0.00;0.00;;;29.10;53.60;;;;;;4948580;28;20035;-73
2022/06/12 12:50:52;;;;;;;0.00;0.00;;;29.10;55.00;;;;;;4947637;28;20078;-73
2022/06/12 12:53:31;;;;;;;0.00;0.00;;;29.00;54.60;;;;;;4948102;28;20054;-74
2022/06/12 12:56:08;;;;;;;0.00;0.00;;;29.00;58.00;;;;;;4948029;28;20082;-74
2022/06/12 12:58:40;;;;;;;0.00;0.00;;;29.00;55.60;;;;;;4950317;28;20031;-72
2022/06/12 13:01:27;;;;;;;0.00;0.00;;;28.90;54.40;;;;;;4947143;28;20039;-72
2022/06/12 13:04:10;;;;;;;0.00;0.00;;;28.90;54.20;;;;;;4951367;28;20110;-78
2022/06/12 13:06:51;;;;;;;0.00;0.00;;;28.80;53.80;;;;;;4946830;28;20028;-73
2022/06/12 13:09:26;;;;;;;0.00;0.00;;;28.80;53.90;;;;;;4944591;28;20303;-75
2022/06/12 13:12:01;;;;;;;0.00;0.00;;;28.80;53.10;;;;;;4944536;28;20019;-73
2022/06/12 13:14:55;;;;;;;0.00;0.00;;;28.80;52.00;;;;;;4947869;29;20024;-74
2022/06/12 13:17:39;;;;;;;0.00;0.00;;;28.80;52.90;;;;;;4937328;29;20031;-73
2022/06/12 13:20:32;;;;;;;0.00;0.00;;;28.80;55.80;;;;;;4948749;28;20031;-81
2022/06/12 13:23:05;;;;;;;0.00;0.00;;;28.70;53.00;;;;;;4937894;29;20034;-73
2022/06/12 13:25:37;;;;;;;0.00;0.00;;;28.60;53.40;;;;;;4925947;29;20746;-73
2022/06/12 13:28:03;;;;;;;0.00;0.00;;;28.60;54.20;;;;;;4945239;28;20254;-79
2022/06/12 13:30:41;;;;;;;0.00;0.00;;;28.60;54.70;;;;;;4946735;28;20192;-79
2022/06/12 13:33:21;;;;;;;0.00;0.00;;;28.60;54.00;;;;;;4930091;29;20050;-73
2022/06/12 13:36:03;;;;;;;0.00;0.00;;;28.60;53.80;;;;;;4943809;28;20268;-72
2022/06/12 13:38:33;;;;;;;0.00;0.00;;;28.60;54.80;;;;;;4946775;28;20231;-76
2022/06/12 13:41:05;;;;;;;0.00;0.00;;;28.60;53.70;;;;;;4950838;28;20031;-80
2022/06/12 13:43:40;;;;;;;0.00;0.00;;;28.50;54.40;;;;;;4942713;28;20239;-73